Time;durP1;ratioP1;P1;durP2;ratioP2;P2;SDS_P1;SDS_P2;PMS_P1;PMS_P2;Temp;Humidity;BMP_temperature;BMP_pressure;BME280_temperature;BME280_humidity;BME280_pressure;Samples;Min_cycle;Max_cycle;Signal;HPM_P1;HPM_P2
2021/01/28 01:24:16;;;;;;;23.03;12.90;;;;;;;4.24;87.96;100044.13;5016276;28;20289;-80
2021/01/28 01:26:42;;;;;;;27.07;14.83;;;;;;;4.26;87.55;100044.91;5013071;28;20214;-79
2021/01/28 01:29:08;;;;;;;25.53;13.83;;;;;;;4.28;87.71;100045.69;5018198;28;20214;-82
2021/01/28 01:31:34;;;;;;;25.10;14.43;;;;;;;4.28;87.82;100043.06;5019116;28;20230;-83
2021/01/28 01:34:00;;;;;;;25.10;13.60;;;;;;;4.30;87.97;100041.22;5027653;28;20230;-79
2021/01/28 01:36:26;;;;;;;24.73;13.53;;;;;;;4.31;87.64;100038.47;5016437;28;20203;-79
2021/01/28 01:38:52;;;;;;;23.37;13.63;;;;;;;4.32;87.97;100037.56;5021058;28;20209;-82
2021/01/28 01:41:19;;;;;;;21.63;12.63;;;;;;;4.34;87.71;100045.38;5012941;28;20208;-82
2021/01/28 01:43:45;;;;;;;24.17;12.17;;;;;;;4.34;87.92;100042.75;5011316;28;20280;-82
2021/01/28 01:46:14;;;;;;;20.77;12.97;;;;;;;4.36;87.56;100043.53;5030387;28;20209;-82
2021/01/28 01:48:46;;;;;;;24.17;13.57;;;;;;;4.36;87.91;100040.91;5007711;28;20711;-81
2021/01/28 01:51:16;;;;;;;26.33;14.57;;;;;;;4.36;87.54;100036.47;5016077;28;20225;-83
2021/01/28 01:53:46;;;;;;;22.07;13.77;;;;;;;4.37;87.94;100035.56;5029825;28;20676;-81
2021/01/28 01:56:17;;;;;;;22.47;12.87;;;;;;;4.38;88.04;100031.13;5019310;28;20671;-78
2021/01/28 01:58:52;;;;;;;23.53;12.97;;;;;;;4.38;87.76;100031.13;5027345;28;20305;-82
2021/01/28 02:01:21;;;;;;;25.77;13.50;;;;;;;4.37;87.56;100030.28;5016095;28;20203;-80
2021/01/28 02:03:48;;;;;;;22.63;13.23;;;;;;;4.38;87.65;100031.13;5026051;28;20214;-82
2021/01/28 02:06:20;;;;;;;19.70;12.07;;;;;;;4.38;87.42;100024.09;5029987;28;20635;-80
2021/01/28 02:08:48;;;;;;;24.30;13.50;;;;;;;4.38;87.88;100021.44;5015688;28;20233;-80
2021/01/28 02:11:14;;;;;;;20.33;11.60;;;;;;;4.39;87.44;100019.66;5027033;28;20226;-79
2021/01/28 02:13:42;;;;;;;21.23;13.20;;;;;;;4.39;87.59;100014.41;5027246;28;20210;-81
2021/01/28 02:16:10;;;;;;;21.80;12.03;;;;;;;4.40;87.60;100013.47;5031481;28;20203;-82
2021/01/28 02:18:36;;;;;;;22.83;12.77;;;;;;;4.41;87.56;100007.28;5021792;28;20207;-80
2021/01/28 02:21:10;;;;;;;20.33;12.10;;;;;;;4.41;88.02;100012.53;5036092;28;20649;-79
2021/01/28 02:23:51;;;;;;;21.67;12.63;;;;;;;4.41;87.57;100008.13;5020024;28;20207;-79
2021/01/28 02:26:18;;;;;;;20.83;11.77;;;;;;;4.42;88.00;100006.34;5026453;28;20198;-81
2021/01/28 02:28:44;;;;;;;23.97;13.73;;;;;;;4.41;87.85;100010.75;5021704;28;20249;-82
2021/01/28 02:31:11;;;;;;;27.67;13.60;;;;;;;4.42;87.74;100001.06;5027876;28;20227;-80
2021/01/28 02:33:43;;;;;;;26.93;14.30;;;;;;;4.42;87.60;99999.28;5023456;28;20580;-81
2021/01/28 02:36:09;;;;;;;23.67;13.30;;;;;;;4.42;87.44;99986.09;5022170;28;20203;-81
2021/01/28 02:38:35;;;;;;;26.37;14.40;;;;;;;4.42;87.45;99977.34;5025520;28;20210;-81
2021/01/28 02:41:02;;;;;;;27.63;14.93;;;;;;;4.42;87.57;99987.88;5026726;28;20587;-79
2021/01/28 02:43:29;;;;;;;25.90;14.20;;;;;;;4.41;87.59;99975.63;5024935;28;20207;-80
2021/01/28 02:46:07;;;;;;;28.97;15.23;;;;;;;4.41;88.06;99976.50;5017783;28;20230;-81
2021/01/28 02:48:33;;;;;;;35.63;15.60;;;;;;;4.42;88.08;99979.97;5019478;28;20222;-80
2021/01/28 02:50:59;;;;;;;27.33;14.50;;;;;;;4.42;87.60;99980.84;5026340;28;20730;-79
2021/01/28 02:53:25;;;;;;;29.80;15.20;;;;;;;4.42;87.95;99982.63;5027563;28;20272;-79
2021/01/28 02:55:51;;;;;;;29.23;14.97;;;;;;;4.40;87.82;99971.28;5027709;28;20226;-79
2021/01/28 02:58:18;;;;;;;30.90;15.63;;;;;;;4.39;87.94;99978.34;5025052;28;20203;-80
2021/01/28 03:00:45;;;;;;;28.93;15.40;;;;;;;4.40;87.81;99982.69;5017913;28;20199;-78
2021/01/28 03:03:13;;;;;;;32.87;15.17;;;;;;;4.41;87.61;99978.28;5018301;28;20211;-81
2021/01/28 03:05:39;;;;;;;30.10;14.70;;;;;;;4.40;87.92;99972.13;5020666;28;20234;-80
2021/01/28 03:08:05;;;;;;;28.50;15.27;;;;;;;4.42;88.29;99977.34;5019229;28;20199;-81
2021/01/28 03:10:32;;;;;;;29.20;14.77;;;;;;;4.40;87.75;99969.50;5020030;28;20213;-80
2021/01/28 03:12:58;;;;;;;26.27;14.13;;;;;;;4.41;87.93;99968.59;5020741;28;20203;-80
2021/01/28 03:15:24;;;;;;;27.20;13.83;;;;;;;4.41;88.20;99959.81;5029332;28;20248;-79
2021/01/28 03:17:52;;;;;;;26.23;13.53;;;;;;;4.41;88.05;99959.81;5029906;28;20615;-80
2021/01/28 03:20:19;;;;;;;28.83;14.30;;;;;;;4.42;88.11;99966.81;5019383;28;20210;-78
2021/01/28 03:22:45;;;;;;;25.70;13.43;;;;;;;4.42;87.86;99966.81;5018807;28;20572;-78
2021/01/28 03:25:13;;;;;;;28.20;14.30;;;;;;;4.43;88.33;99955.31;5017830;28;20241;-79
2021/01/28 03:27:40;;;;;;;24.97;13.10;;;;;;;4.42;88.33;99956.25;5031520;28;20215;-81
2021/01/28 03:30:08;;;;;;;27.87;14.10;;;;;;;4.42;88.45;99956.25;5026161;28;20256;-80
2021/01/28 03:32:34;;;;;;;24.37;13.27;;;;;;;4.42;88.03;99953.63;5022964;28;20237;-79
2021/01/28 03:35:02;;;;;;;25.73;13.77;;;;;;;4.40;87.69;99953.69;5017568;28;20226;-78
2021/01/28 03:37:28;;;;;;;24.23;11.93;;;;;;;4.41;88.35;99958.03;5030353;28;20615;-80
2021/01/28 03:39:54;;;;;;;24.63;12.43;;;;;;;4.41;88.02;99951.91;5026833;28;20207;-80
2021/01/28 03:42:20;;;;;;;19.80;11.93;;;;;;;4.41;87.89;99944.00;5022547;28;20210;-80
2021/01/28 03:44:46;;;;;;;21.97;12.17;;;;;;;4.41;88.36;99944.00;5021128;28;20222;-79
2021/01/28 03:47:12;;;;;;;23.40;12.53;;;;;;;4.41;88.29;99946.63;5023715;28;20211;-82
2021/01/28 03:49:38;;;;;;;23.60;11.80;;;;;;;4.41;88.25;99954.53;5029324;28;20217;-80
2021/01/28 03:52:05;;;;;;;20.40;10.60;;;;;;;4.41;88.23;99950.13;5012358;28;20712;-78
2021/01/28 03:54:31;;;;;;;20.70;10.93;;;;;;;4.42;87.92;99950.97;5020987;28;20230;-79
2021/01/28 03:56:57;;;;;;;16.77;10.00;;;;;;;4.40;88.05;99953.69;5025239;28;20221;-78
2021/01/28 03:59:23;;;;;;;14.87;8.87;;;;;;;4.38;87.91;99950.28;5019898;28;20294;-81
2021/01/28 04:01:49;;;;;;;16.73;8.50;;;;;;;4.38;88.21;99949.41;5023071;28;20441;-83
2021/01/28 04:04:15;;;;;;;13.20;7.93;;;;;;;4.37;87.69;99952.97;5022139;28;20284;-80
2021/01/28 04:06:41;;;;;;;13.17;8.33;;;;;;;4.36;87.73;99957.41;5024699;28;20597;-79
2021/01/28 04:09:08;;;;;;;14.70;7.67;;;;;;;4.34;88.24;99953.97;5019894;28;20203;-80
2021/01/28 04:11:34;;;;;;;11.23;6.63;;;;;;;4.35;87.75;99952.19;5009969;28;20647;-81
2021/01/28 04:14:00;;;;;;;10.80;6.67;;;;;;;4.33;88.03;99951.41;5026126;28;20271;-80
2021/01/28 04:16:26;;;;;;;9.67;6.23;;;;;;;4.32;87.75;99950.56;5018775;28;20294;-82
2021/01/28 04:18:52;;;;;;;10.27;5.83;;;;;;;4.31;88.25;99948.00;5018364;28;20217;-80
2021/01/28 04:21:18;;;;;;;9.93;6.20;;;;;;;4.30;88.20;99948.94;5027809;28;20203;-82
2021/01/28 04:23:44;;;;;;;11.37;6.50;;;;;;;4.28;88.09;99945.53;5030732;28;20590;-81
2021/01/28 04:26:11;;;;;;;10.57;6.43;;;;;;;4.28;88.20;99945.53;5019426;28;20210;-79
2021/01/28 04:28:37;;;;;;;11.83;6.73;;;;;;;4.28;88.03;99945.53;5019481;28;20241;-81
2021/01/28 04:31:03;;;;;;;11.23;6.13;;;;;;;4.29;88.21;99941.97;5024756;28;20226;-82
2021/01/28 04:33:29;;;;;;;11.23;5.73;;;;;;;4.27;87.55;99933.28;5020804;28;20216;-81
2021/01/28 04:35:56;;;;;;;10.83;6.40;;;;;;;4.26;87.70;99932.44;5022487;28;20232;-81
2021/01/28 04:38:22;;;;;;;10.90;6.90;;;;;;;4.26;88.18;99924.53;5021458;28;20264;-81
2021/01/28 04:40:51;;;;;;;11.53;6.27;;;;;;;4.25;87.72;99925.44;5017547;28;20562;-82
2021/01/28 04:43:23;;;;;;;12.57;6.37;;;;;;;4.25;87.41;99922.81;5017958;28;20211;-83
2021/01/28 04:45:50;;;;;;;9.27;5.57;;;;;;;4.24;87.60;99921.09;5019834;28;20240;-82
2021/01/28 04:48:17;;;;;;;13.43;6.60;;;;;;;4.23;87.66;99922.03;5021114;28;20223;-80
2021/01/28 04:50:44;;;;;;;10.73;6.10;;;;;;;4.24;88.03;99925.53;5021259;28;20221;-79
2021/01/28 04:53:15;;;;;;;10.53;6.47;;;;;;;4.23;88.04;99918.53;5015948;28;20214;-79
2021/01/28 04:55:43;;;;;;;8.63;5.90;;;;;;;4.22;87.59;99916.84;5016720;28;20606;-79
2021/01/28 04:58:10;;;;;;;10.00;5.53;;;;;;;4.21;87.99;99905.44;5022678;28;20211;-81
2021/01/28 05:00:37;;;;;;;9.23;5.67;;;;;;;4.22;87.70;99904.50;5015512;28;20686;-81
2021/01/28 05:03:15;;;;;;;10.97;5.73;;;;;;;4.22;87.41;99901.00;5010553;28;20218;-80
2021/01/28 05:05:41;;;;;;;9.63;6.10;;;;;;;4.22;87.74;99893.09;5014418;28;20230;-81
2021/01/28 05:08:07;;;;;;;10.33;6.30;;;;;;;4.21;87.59;99894.91;5017311;28;20206;-81
2021/01/28 05:10:41;;;;;;;9.93;6.00;;;;;;;4.22;87.98;99895.75;5020274;28;20610;-81
2021/01/28 05:13:08;;;;;;;11.23;6.20;;;;;;;4.21;87.20;99886.13;5021459;28;20206;-80
2021/01/28 05:15:37;;;;;;;9.33;5.60;;;;;;;4.20;87.66;99880.00;5013867;28;20222;-81
2021/01/28 05:18:18;;;;;;;8.90;5.50;;;;;;;4.19;87.23;99880.94;5014585;28;20572;-79
2021/01/28 05:20:46;;;;;;;8.70;5.13;;;;;;;4.17;87.23;99881.00;5015085;28;20207;-78
2021/01/28 05:23:28;;;;;;;9.30;5.33;;;;;;;4.19;87.90;99894.09;5012454;28;20207;-80
2021/01/28 05:25:54;;;;;;;11.20;5.63;;;;;;;4.18;87.21;99890.63;5012633;28;20234;-80
2021/01/28 05:28:29;;;;;;;9.13;5.87;;;;;;;4.17;87.87;99877.50;5014494;28;20214;-80
2021/01/28 05:30:55;;;;;;;9.20;5.80;;;;;;;4.17;87.31;99877.50;5005730;28;20593;-80
2021/01/28 05:33:31;;;;;;;8.43;5.17;;;;;;;4.16;87.15;99860.84;5021269;28;20211;-79
2021/01/28 05:36:16;;;;;;;12.03;6.07;;;;;;;4.16;87.46;99855.59;5014852;28;20222;-78
2021/01/28 05:38:45;;;;;;;9.83;5.80;;;;;;;4.16;87.18;99857.34;5014730;28;20195;-79
2021/01/28 05:41:24;;;;;;;8.37;5.53;;;;;;;4.15;87.29;99859.13;5015037;28;20206;-78
2021/01/28 05:43:50;;;;;;;10.10;6.47;;;;;;;4.14;87.33;99857.44;5012892;28;20265;-79
2021/01/28 05:46:20;;;;;;;9.90;6.57;;;;;;;4.13;87.12;99857.50;5014838;28;20661;-78
2021/01/28 05:49:02;;;;;;;10.80;6.77;;;;;;;4.12;87.69;99850.56;5013689;28;20672;-79
2021/01/28 05:51:40;;;;;;;9.80;6.17;;;;;;;4.11;87.33;99862.88;5016391;28;20222;-78
2021/01/28 05:54:08;;;;;;;10.67;6.90;;;;;;;4.11;86.96;99873.44;5017217;28;20233;-78
2021/01/28 05:56:52;;;;;;;11.80;6.73;;;;;;;4.11;87.45;99877.84;5017349;28;20206;-79
2021/01/28 05:59:28;;;;;;;13.97;7.23;;;;;;;4.09;87.44;99864.75;5017902;28;20209;-79
2021/01/28 06:02:24;;;;;;;10.60;7.20;;;;;;;4.10;87.04;99881.41;5016127;28;20199;-79
2021/01/28 06:05:01;;;;;;;10.93;6.50;;;;;;;4.08;87.41;99868.31;5012717;28;20223;-79
2021/01/28 06:07:57;;;;;;;12.63;6.97;;;;;;;4.07;87.55;99866.59;5018479;28;20208;-79
2021/01/28 06:10:44;;;;;;;11.57;6.77;;;;;;;4.07;87.73;99868.38;5013837;28;20245;-79
2021/01/28 06:13:47;;;;;;;11.23;6.77;;;;;;;4.06;87.15;99862.25;5015693;28;20210;-80
2021/01/28 06:16:21;;;;;;;12.83;6.80;;;;;;;4.05;87.36;99857.91;5014944;28;20202;-79
2021/01/28 06:19:14;;;;;;;14.53;7.40;;;;;;;4.04;87.51;99844.81;5018007;28;20214;-80
2021/01/28 06:21:55;;;;;;;11.20;7.27;;;;;;;4.05;86.67;99825.44;5016942;28;20195;-80
2021/01/28 06:24:38;;;;;;;11.20;7.23;;;;;;;4.05;87.11;99828.06;5016200;28;20775;-79
2021/01/28 06:27:15;;;;;;;12.87;8.13;;;;;;;4.04;86.75;99803.50;5018437;28;20207;-80
2021/01/28 06:30:01;;;;;;;13.53;7.30;;;;;;;4.04;86.97;99803.50;5026972;28;20213;-81
2021/01/28 06:32:55;;;;;;;14.40;7.63;;;;;;;4.04;86.81;99800.88;5016817;28;20225;-78
2021/01/28 06:35:38;;;;;;;11.83;7.70;;;;;;;4.05;87.40;99801.72;5006807;28;20223;-78
2021/01/28 06:38:20;;;;;;;13.03;8.60;;;;;;;4.03;87.39;99801.78;5005346;28;20265;-78
2021/01/28 06:40:51;;;;;;;12.70;7.70;;;;;;;4.04;86.95;99800.00;5013446;28;20195;-78
2021/01/28 06:43:23;;;;;;;14.57;8.70;;;;;;;4.04;87.19;99800.88;5014018;28;20203;-78
2021/01/28 06:45:59;;;;;;;13.73;8.03;;;;;;;4.04;87.34;99795.59;5015869;28;20650;-78
2021/01/28 06:48:33;;;;;;;12.93;8.30;;;;;;;4.04;86.85;99792.97;5013900;28;20224;-80
2021/01/28 06:51:06;;;;;;;15.87;8.77;;;;;;;4.04;86.92;99790.31;5010889;28;20240;-79
2021/01/28 06:53:43;;;;;;;13.27;7.80;;;;;;;4.04;87.35;99787.69;5017639;28;20205;-80
2021/01/28 06:56:16;;;;;;;15.40;9.70;;;;;;;4.03;87.16;99780.72;5014383;28;20214;-79
2021/01/28 06:59:01;;;;;;;11.30;7.80;;;;;;;4.02;86.88;99773.75;5015703;28;20199;-78
2021/01/28 07:01:36;;;;;;;14.70;9.07;;;;;;;4.03;86.76;99783.34;5012353;28;20199;-79
2021/01/28 07:04:12;;;;;;;12.80;8.83;;;;;;;4.03;86.89;99785.97;5017392;28;20226;-81
2021/01/28 07:06:45;;;;;;;14.73;9.00;;;;;;;4.03;86.82;99782.50;5020421;28;20205;-81
2021/01/28 07:09:23;;;;;;;20.90;10.03;;;;;;;4.03;86.81;99785.13;5020122;28;20199;-80
2021/01/28 07:11:54;;;;;;;16.90;10.23;;;;;;;4.02;86.72;99789.53;5016850;28;20295;-81
2021/01/28 07:14:22;;;;;;;19.13;11.97;;;;;;;4.03;86.70;99785.13;5013420;28;20285;-81
2021/01/28 07:16:56;;;;;;;25.50;14.87;;;;;;;4.02;87.18;99783.44;5015008;28;20645;-79
2021/01/28 07:19:25;;;;;;;26.87;17.47;;;;;;;4.02;87.32;99791.34;5015782;28;20198;-80
2021/01/28 07:21:53;;;;;;;30.30;18.63;;;;;;;4.01;87.20;99787.84;5015737;28;20210;-80
2021/01/28 07:24:32;;;;;;;26.97;16.70;;;;;;;4.02;87.41;99788.69;5014500;28;20234;-79
2021/01/28 07:27:01;;;;;;;23.77;15.30;;;;;;;4.02;86.78;99784.28;5015686;28;20206;-78
2021/01/28 07:29:51;;;;;;;20.87;13.37;;;;;;;4.02;87.47;99783.44;5026586;28;20206;-79
2021/01/28 07:32:51;;;;;;;18.53;12.10;;;;;;;4.00;87.11;99775.59;5021079;28;20302;-80
2021/01/28 07:35:45;;;;;;;17.00;10.47;;;;;;;4.01;87.13;99777.31;5014120;28;20603;-82
2021/01/28 07:38:49;;;;;;;14.13;9.67;;;;;;;4.01;87.12;99777.31;5009001;28;20210;-79
2021/01/28 07:41:38;;;;;;;15.57;8.63;;;;;;;4.01;87.16;99766.75;5020337;28;20223;-81
2021/01/28 07:44:50;;;;;;;15.20;8.37;;;;;;;3.99;86.45;99773.03;5030916;28;20569;-80
2021/01/28 07:47:48;;;;;;;16.13;8.80;;;;;;;3.98;86.85;99776.59;5022453;28;20206;-79
2021/01/28 07:50:31;;;;;;;13.50;9.13;;;;;;;3.96;86.59;99768.78;5022602;28;20198;-80
2021/01/28 07:52:57;;;;;;;15.33;8.97;;;;;;;3.95;87.17;99767.06;5022513;28;20230;-81
2021/01/28 07:55:42;;;;;;;15.40;8.73;;;;;;;3.96;87.12;99767.91;5023025;28;20219;-79
2021/01/28 07:58:23;;;;;;;16.90;10.17;;;;;;;3.95;86.92;99763.56;5022672;28;20237;-80
2021/01/28 08:00:52;;;;;;;17.17;10.63;;;;;;;3.94;86.53;99757.44;5003956;28;20210;-79
2021/01/28 08:03:31;;;;;;;16.33;10.40;;;;;;;3.90;86.71;99755.94;5002611;28;20243;-80
2021/01/28 08:06:01;;;;;;;18.17;10.60;;;;;;;3.89;86.63;99750.72;5001128;28;20278;-80
2021/01/28 08:08:27;;;;;;;16.10;10.70;;;;;;;3.87;87.03;99745.53;5017393;28;20309;-81
2021/01/28 08:10:53;;;;;;;19.47;10.97;;;;;;;3.85;87.33;99744.75;5024513;28;20297;-81
2021/01/28 08:13:24;;;;;;;17.97;11.60;;;;;;;3.86;86.80;99745.63;5024659;28;20645;-81
2021/01/28 08:15:56;;;;;;;19.63;11.03;;;;;;;3.84;87.04;99743.91;5026409;28;20223;-80
2021/01/28 08:18:25;;;;;;;18.23;11.50;;;;;;;3.84;86.96;99741.28;5025676;28;20704;-82
2021/01/28 08:21:04;;;;;;;18.97;11.33;;;;;;;3.86;86.41;99741.19;5025159;28;20215;-83
2021/01/28 08:23:31;;;;;;;20.90;11.70;;;;;;;3.86;86.57;99749.09;5025088;28;20262;-82
2021/01/28 08:25:59;;;;;;;18.63;11.10;;;;;;;3.87;86.81;99742.06;5025134;28;20248;-82
2021/01/28 08:28:29;;;;;;;17.83;11.20;;;;;;;3.89;86.22;99745.47;5024896;28;20657;-82
2021/01/28 08:31:05;;;;;;;19.30;11.37;;;;;;;3.90;86.95;99747.16;5024854;28;20214;-81
2021/01/28 08:33:32;;;;;;;16.50;11.33;;;;;;;3.90;86.58;99750.66;5025002;28;20212;-82
2021/01/28 08:36:02;;;;;;;19.20;11.37;;;;;;;3.92;87.17;99746.16;5025483;28;20265;-82
2021/01/28 08:38:31;;;;;;;15.70;10.23;;;;;;;3.93;86.56;99745.25;5025433;28;20276;-81
2021/01/28 08:41:07;;;;;;;17.83;12.17;;;;;;;3.94;86.43;99741.66;5024835;28;20211;-82
2021/01/28 08:43:33;;;;;;;15.60;10.87;;;;;;;3.95;86.29;99739.88;5024689;28;20206;-80
2021/01/28 08:46:09;;;;;;;18.80;10.13;;;;;;;3.94;86.77;99736.38;5024163;28;20211;-82
2021/01/28 08:48:36;;;;;;;20.40;11.83;;;;;;;3.92;86.18;99727.72;5023845;28;20614;-82
2021/01/28 08:51:08;;;;;;;16.03;10.23;;;;;;;3.93;86.39;99720.69;5023893;28;20613;-81
2021/01/28 08:53:35;;;;;;;10.63;7.67;;;;;;;3.90;86.24;99712.94;5022932;28;20198;-81
2021/01/28 08:56:11;;;;;;;13.50;6.90;;;;;;;3.86;86.00;99704.31;5023752;28;20206;-81
2021/01/28 08:58:41;;;;;;;11.97;7.80;;;;;;;3.82;85.94;99692.22;5022461;28;20191;-81
2021/01/28 09:01:08;;;;;;;17.90;10.60;;;;;;;3.79;85.96;99695.00;5023459;28;20203;-81
2021/01/28 09:03:40;;;;;;;16.43;11.17;;;;;;;3.78;86.31;99694.16;5019950;28;20212;-79
2021/01/28 09:06:06;;;;;;;19.80;11.30;;;;;;;3.79;86.19;99693.22;5002768;28;20195;-79
2021/01/28 09:08:35;;;;;;;16.37;9.50;;;;;;;3.81;86.38;99690.53;5000188;28;20294;-80
2021/01/28 09:11:13;;;;;;;13.30;8.13;;;;;;;3.81;85.90;99683.47;5001035;28;20576;-80
2021/01/28 09:13:40;;;;;;;15.70;9.03;;;;;;;3.82;86.15;99681.69;5000935;28;20247;-79
2021/01/28 09:16:11;;;;;;;16.57;9.60;;;;;;;3.83;85.97;99686.03;5002216;28;20690;-79
2021/01/28 09:18:40;;;;;;;14.77;9.33;;;;;;;3.84;86.13;99669.31;5002013;28;20192;-81
2021/01/28 09:21:11;;;;;;;10.23;7.57;;;;;;;3.82;85.98;99666.75;5001312;28;20214;-79
2021/01/28 09:23:52;;;;;;;14.13;7.73;;;;;;;3.80;85.85;99671.25;5012899;28;20543;-81
2021/01/28 09:26:22;;;;;;;13.73;8.13;;;;;;;3.80;85.75;99662.47;5022014;28;20202;-82
2021/01/28 09:28:48;;;;;;;13.67;8.60;;;;;;;3.80;85.74;99654.59;5024385;28;20217;-81
2021/01/28 09:31:27;;;;;;;14.40;8.77;;;;;;;3.81;85.47;99648.38;5019951;28;20241;-82
2021/01/28 09:33:53;;;;;;;11.87;7.63;;;;;;;3.83;86.00;99641.25;5034950;28;20195;-82
2021/01/28 09:36:22;;;;;;;14.40;8.80;;;;;;;3.87;85.04;99644.59;5017620;28;20207;-81
2021/01/28 09:39:07;;;;;;;12.80;9.20;;;;;;;3.88;85.28;99646.31;5021672;28;20231;-81
2021/01/28 09:41:40;;;;;;;12.33;8.50;;;;;;;3.86;85.24;99640.25;5023849;28;20193;-80
2021/01/28 09:44:30;;;;;;;11.20;6.50;;;;;;;3.85;85.12;99642.03;5020391;28;20683;-80
2021/01/28 09:47:18;;;;;;;8.97;5.33;;;;;;;3.80;84.88;99631.72;5016879;28;20206;-81
2021/01/28 09:49:45;;;;;;;8.63;5.57;;;;;;;3.76;85.25;99632.81;5016664;28;20713;-81
2021/01/28 09:52:18;;;;;;;8.53;6.57;;;;;;;3.72;85.50;99627.81;5019722;28;20231;-81
2021/01/28 09:54:44;;;;;;;9.20;5.77;;;;;;;3.69;84.82;99634.09;5011769;28;20222;-80
2021/01/28 09:57:10;;;;;;;10.23;6.63;;;;;;;3.68;84.71;99632.38;5021907;28;20234;-80
2021/01/28 09:59:37;;;;;;;12.23;8.07;;;;;;;3.68;85.38;99627.09;5020250;28;20693;-81
2021/01/28 10:02:03;;;;;;;11.23;6.53;;;;;;;3.71;85.22;99620.84;5022107;28;20211;-79
2021/01/28 10:04:29;;;;;;;10.87;6.60;;;;;;;3.73;84.42;99627.72;5017807;28;20787;-80
2021/01/28 10:06:55;;;;;;;10.27;7.00;;;;;;;3.73;84.80;99624.25;5009287;28;20210;-81
2021/01/28 10:09:21;;;;;;;9.40;6.00;;;;;;;3.74;84.73;99633.84;5020627;28;20249;-80
2021/01/28 10:11:47;;;;;;;10.70;6.90;;;;;;;3.73;85.21;99616.34;5023780;28;20313;-80
2021/01/28 10:14:13;;;;;;;11.13;7.70;;;;;;;3.73;85.06;99616.34;5021597;28;20234;-79
2021/01/28 10:16:40;;;;;;;10.83;7.17;;;;;;;3.72;84.44;99626.03;5021043;28;20207;-80
2021/01/28 10:19:06;;;;;;;11.27;7.47;;;;;;;3.72;84.71;99618.13;5019039;28;20222;-82
2021/01/28 10:21:32;;;;;;;13.77;8.13;;;;;;;3.73;85.11;99618.97;5024142;28;20248;-82
2021/01/28 10:23:58;;;;;;;12.80;6.77;;;;;;;3.72;84.73;99623.41;5023104;28;20243;-81
2021/01/28 10:26:24;;;;;;;10.97;7.60;;;;;;;3.71;84.05;99615.56;5023090;28;20191;-82
2021/01/28 10:28:50;;;;;;;11.77;7.67;;;;;;;3.68;84.48;99613.09;5021157;28;20294;-81
2021/01/28 10:31:16;;;;;;;13.27;7.83;;;;;;;3.67;84.68;99608.75;5020947;28;20211;-81
2021/01/28 10:33:43;;;;;;;12.73;7.97;;;;;;;3.67;84.25;99600.84;5018657;28;20206;-79
2021/01/28 10:36:10;;;;;;;13.47;8.60;;;;;;;3.68;84.57;99599.94;5019201;28;20302;-79
2021/01/28 10:38:36;;;;;;;11.73;8.33;;;;;;;3.71;84.55;99605.03;5017726;28;20203;-79
2021/01/28 10:41:04;;;;;;;12.20;7.70;;;;;;;3.70;84.15;99601.56;5024608;28;20298;-79
2021/01/28 10:43:29;;;;;;;11.97;8.27;;;;;;;3.70;84.57;99596.28;5015190;28;20206;-82
2021/01/28 10:45:56;;;;;;;11.07;7.43;;;;;;;3.70;84.36;99598.06;5002655;28;20609;-82
2021/01/28 10:48:21;;;;;;;12.23;7.60;;;;;;;3.70;84.06;99588.38;5027305;28;20203;-79
2021/01/28 10:50:49;;;;;;;11.30;7.30;;;;;;;3.70;84.26;99590.16;5047388;28;20233;-79
2021/01/28 10:53:16;;;;;;;13.37;8.70;;;;;;;3.69;84.34;99581.41;5046658;28;20707;-80
2021/01/28 10:55:42;;;;;;;13.73;9.30;;;;;;;3.70;84.56;99582.28;5045050;28;20622;-79
2021/01/28 10:58:08;;;;;;;14.17;9.03;;;;;;;3.69;84.55;99580.56;5046767;28;20206;-80
2021/01/28 11:00:34;;;;;;;12.10;7.90;;;;;;;3.68;83.87;99579.72;5044877;28;20245;-79
2021/01/28 11:03:00;;;;;;;14.63;8.10;;;;;;;3.67;84.53;99575.38;5045965;28;20198;-78
2021/01/28 11:05:29;;;;;;;11.63;8.00;;;;;;;3.65;84.00;99568.47;5039227;28;20297;-81
2021/01/28 11:07:56;;;;;;;12.47;7.70;;;;;;;3.64;84.15;99570.25;5014298;28;20211;-82
2021/01/28 11:10:23;;;;;;;9.13;6.80;;;;;;;3.62;84.48;99556.31;5019605;28;20207;-82
2021/01/28 11:12:50;;;;;;;12.13;8.10;;;;;;;3.60;83.72;99557.34;5016248;28;20223;-81
2021/01/28 11:15:16;;;;;;;13.33;7.53;;;;;;;3.58;84.19;99556.59;5004590;28;20227;-80
2021/01/28 11:17:43;;;;;;;14.63;7.93;;;;;;;3.57;83.71;99555.75;5006079;28;20204;-80
2021/01/28 11:20:11;;;;;;;12.70;8.17;;;;;;;3.57;83.80;99542.56;5005630;28;20221;-81
2021/01/28 11:22:37;;;;;;;14.23;7.53;;;;;;;3.57;84.60;99542.56;5005450;28;20212;-82
2021/01/28 11:25:10;;;;;;;10.73;6.80;;;;;;;3.57;84.41;99539.09;5020976;28;20238;-80
2021/01/28 11:27:36;;;;;;;12.07;6.83;;;;;;;3.57;84.47;99533.81;5025736;28;20187;-80
2021/01/28 11:30:02;;;;;;;11.43;6.80;;;;;;;3.56;84.63;99530.34;5026544;28;20688;-81
2021/01/28 11:32:28;;;;;;;11.37;6.93;;;;;;;3.56;83.66;99526.84;5026116;28;20679;-81
2021/01/28 11:34:54;;;;;;;11.23;6.63;;;;;;;3.55;83.75;99518.09;5023623;28;20236;-81
2021/01/28 11:37:20;;;;;;;13.13;7.00;;;;;;;3.54;84.00;99510.28;5026192;28;20636;-82
2021/01/28 11:39:47;;;;;;;12.63;7.07;;;;;;;3.53;84.00;99512.06;5026227;28;20217;-81
2021/01/28 11:42:15;;;;;;;12.77;7.10;;;;;;;3.49;83.80;99506.09;5026456;28;20199;-80
2021/01/28 11:44:41;;;;;;;13.57;7.23;;;;;;;3.48;83.74;99504.41;5025513;28;20239;-81
2021/01/28 11:47:07;;;;;;;13.63;7.77;;;;;;;3.47;84.51;99483.44;5024484;28;20262;-81
2021/01/28 11:49:33;;;;;;;12.60;8.47;;;;;;;3.46;84.09;99484.34;5025248;28;20207;-82
2021/01/28 11:51:59;;;;;;;15.10;8.53;;;;;;;3.45;84.58;99480.03;5022500;28;20276;-81
2021/01/28 11:54:25;;;;;;;11.67;9.07;;;;;;;3.44;84.12;99479.16;5024212;28;20670;-80
2021/01/28 11:56:51;;;;;;;17.47;10.00;;;;;;;3.43;83.99;99474.84;5026190;28;20216;-81
2021/01/28 11:59:18;;;;;;;13.53;8.97;;;;;;;3.43;84.00;99479.25;5024699;28;20268;-80
2021/01/28 12:01:44;;;;;;;15.27;9.37;;;;;;;3.43;84.26;99466.94;5022630;28;20209;-79
2021/01/28 12:04:10;;;;;;;13.43;8.60;;;;;;;3.44;83.94;99473.06;5023519;28;20227;-80
2021/01/28 12:06:36;;;;;;;11.30;8.40;;;;;;;3.43;84.35;99466.09;5022831;28;20206;-79
2021/01/28 12:09:04;;;;;;;13.00;8.50;;;;;;;3.41;84.79;99462.69;5024173;28;20693;-81
2021/01/28 12:11:30;;;;;;;11.90;7.10;;;;;;;3.39;84.06;99454.91;5021638;28;20235;-80
2021/01/28 12:13:56;;;;;;;9.00;5.90;;;;;;;3.33;84.30;99457.84;5023050;28;20223;-81
2021/01/28 12:16:23;;;;;;;10.97;7.33;;;;;;;3.29;84.68;99453.66;5022539;28;20754;-79
2021/01/28 12:18:49;;;;;;;11.90;7.33;;;;;;;3.26;84.22;99451.19;5021312;28;20217;-80
2021/01/28 12:21:15;;;;;;;9.03;6.77;;;;;;;3.24;84.62;99449.56;5021513;28;20207;-80
2021/01/28 12:23:41;;;;;;;10.03;6.27;;;;;;;3.23;83.88;99447.88;5020083;28;20665;-80
2021/01/28 12:26:07;;;;;;;9.10;5.63;;;;;;;3.24;84.13;99447.78;5021428;28;20195;-79
2021/01/28 12:28:33;;;;;;;7.33;5.20;;;;;;;3.22;84.72;99444.41;5021549;28;20671;-79
2021/01/28 12:30:59;;;;;;;8.70;5.50;;;;;;;3.21;83.87;99441.88;5021152;28;20213;-79
2021/01/28 12:33:25;;;;;;;7.93;5.67;;;;;;;3.20;83.74;99438.38;5019819;28;20227;-81
2021/01/28 12:35:51;;;;;;;7.40;5.73;;;;;;;3.19;84.21;99439.31;5023770;28;20234;-80
2021/01/28 12:38:18;;;;;;;8.60;6.27;;;;;;;3.19;83.84;99438.47;5022256;28;20214;-80
2021/01/28 12:40:44;;;;;;;8.93;6.57;;;;;;;3.20;84.17;99435.75;5023917;28;20202;-79
2021/01/28 12:43:10;;;;;;;11.60;6.73;;;;;;;3.22;84.57;99433.88;5022918;28;20211;-82
2021/01/28 12:45:36;;;;;;;9.70;6.23;;;;;;;3.23;84.11;99435.56;5022815;28;20227;-80
2021/01/28 12:48:02;;;;;;;14.20;7.27;;;;;;;3.25;84.84;99440.75;5023121;28;20214;-82
2021/01/28 12:50:29;;;;;;;11.17;7.37;;;;;;;3.25;84.63;99431.06;5039856;28;20213;-80
2021/01/28 12:52:56;;;;;;;14.03;7.77;;;;;;;3.26;84.86;99424.88;5036844;28;20234;-80
2021/01/28 12:55:22;;;;;;;11.13;7.57;;;;;;;3.28;84.82;99425.66;5022289;28;20223;-81
2021/01/28 12:57:48;;;;;;;13.57;8.60;;;;;;;3.31;85.04;99427.28;5021807;28;20230;-82
2021/01/28 13:00:17;;;;;;;11.57;7.83;;;;;;;3.32;84.11;99416.66;5021623;28;20589;-80
2021/01/28 13:02:44;;;;;;;11.07;7.77;;;;;;;3.32;83.98;99414.03;5021028;28;20249;-81
2021/01/28 13:05:11;;;;;;;13.00;8.10;;;;;;;3.32;84.93;99418.44;5022807;28;20298;-81
2021/01/28 13:07:38;;;;;;;13.20;9.20;;;;;;;3.33;84.43;99413.09;5024964;28;20211;-80
2021/01/28 13:10:06;;;;;;;13.30;8.50;;;;;;;3.35;84.68;99416.50;5026032;28;20278;-82